Time;durP1;ratioP1;P1;durP2;ratioP2;P2;SDS_P1;SDS_P2;PMS_P1;PMS_P2;Temp;Humidity;BMP_temperature;BMP_pressure;BME280_temperature;BME280_humidity;BME280_pressure;Samples;Min_cycle;Max_cycle;Signal;HPM_P1;HPM_P2
2023/12/21 00:01:41;;;;;;;16.60;10.57;;;;;;;;;;5094711;28;20023;-52
2023/12/21 00:04:07;;;;;;;13.38;10.57;;;;;;;;;;5097908;28;20350;-49
2023/12/21 00:06:34;;;;;;;12.10;10.70;;;;;;;;;;5101629;28;20082;-55
2023/12/21 00:09:00;;;;;;;16.38;11.23;;;;;;;;;;5102182;28;20220;-50
2023/12/21 00:11:27;;;;;;;16.60;11.73;;;;;;;;;;5104087;28;20242;-54
2023/12/21 00:13:54;;;;;;;12.65;11.32;;;;;;;;;;5103025;28;20213;-53
2023/12/21 00:16:20;;;;;;;16.90;11.30;;;;;;;;;;5103478;28;20036;-60
2023/12/21 00:18:47;;;;;;;30.10;26.88;;;;;;;;;;5092600;28;20032;-51
2023/12/21 00:21:13;;;;;;;109.90;99.75;;;;;;;;;;5102528;28;20079;-52
2023/12/21 00:23:40;;;;;;;74.75;67.85;;;;;;;;;;5103961;28;20091;-51
2023/12/21 00:26:07;;;;;;;25.35;21.20;;;;;;;;;;5103914;28;20311;-48
2023/12/21 00:28:34;;;;;;;11.60;10.48;;;;;;;;;;5102559;28;20044;-52
2023/12/21 00:31:01;;;;;;;12.98;9.93;;;;;;;;;;5103665;28;20300;-53
2023/12/21 00:33:27;;;;;;;13.88;11.52;;;;;;;;;;5103242;28;20023;-48
2023/12/21 00:35:54;;;;;;;19.13;12.00;;;;;;;;;;5104165;28;20016;-47
2023/12/21 00:38:20;;;;;;;14.55;12.63;;;;;;;;;;5106894;28;20043;-51
2023/12/21 00:40:47;;;;;;;13.85;11.00;;;;;;;;;;5105835;28;20261;-54
2023/12/21 00:43:13;;;;;;;15.88;9.95;;;;;;;;;;5106470;28;20023;-51
2023/12/21 00:45:40;;;;;;;10.00;9.00;;;;;;;;;;5107046;28;20035;-53
2023/12/21 00:48:07;;;;;;;11.90;9.10;;;;;;;;;;5106690;28;20023;-50
2023/12/21 00:50:33;;;;;;;10.45;8.70;;;;;;;;;;5107101;28;20069;-52
2023/12/21 00:53:00;;;;;;;12.80;7.97;;;;;;;;;;5106799;28;20320;-62
2023/12/21 00:55:27;;;;;;;14.30;7.97;;;;;;;;;;5106716;28;20361;-51
2023/12/21 00:57:53;;;;;;;9.25;7.57;;;;;;;;;;5106728;28;20024;-61
2023/12/21 01:00:20;;;;;;;12.90;7.30;;;;;;;;;;5106689;28;20056;-57
2023/12/21 01:02:47;;;;;;;10.50;7.80;;;;;;;;;;5106530;28;20031;-52
2023/12/21 01:05:15;;;;;;;10.15;7.18;;;;;;;;;;5106601;28;20212;-61
2023/12/21 01:07:42;;;;;;;12.43;7.63;;;;;;;;;;5105806;28;20024;-51
2023/12/21 01:10:08;;;;;;;11.40;7.25;;;;;;;;;;5106322;28;20027;-51
2023/12/21 01:12:35;;;;;;;10.82;7.65;;;;;;;;;;5106749;28;20376;-57
2023/12/21 01:15:03;;;;;;;19.85;17.73;;;;;;;;;;5107163;28;20028;-52
2023/12/21 01:17:29;;;;;;;13.98;11.02;;;;;;;;;;5106844;28;20087;-52
2023/12/21 01:19:57;;;;;;;11.35;9.55;;;;;;;;;;5106403;28;20020;-54
2023/12/21 01:22:24;;;;;;;13.43;9.90;;;;;;;;;;5105572;28;20039;-55
2023/12/21 01:24:50;;;;;;;10.27;7.13;;;;;;;;;;5105679;28;20038;-53
2023/12/21 01:27:17;;;;;;;10.77;6.97;;;;;;;;;;5106202;28;20024;-56
2023/12/21 01:29:44;;;;;;;12.32;7.80;;;;;;;;;;5105800;28;20056;-51
2023/12/21 01:32:10;;;;;;;9.50;7.13;;;;;;;;;;5105727;28;20062;-53
2023/12/21 01:34:37;;;;;;;9.70;7.00;;;;;;;;;;5106034;28;20023;-54
2023/12/21 01:37:03;;;;;;;11.68;6.82;;;;;;;;;;5106150;28;20303;-55
2023/12/21 01:39:30;;;;;;;11.18;7.10;;;;;;;;;;5105881;28;20215;-55
2023/12/21 01:41:57;;;;;;;9.52;7.53;;;;;;;;;;5106362;28;20032;-53
2023/12/21 01:44:23;;;;;;;9.50;6.50;;;;;;;;;;5105887;28;20032;-57
2023/12/21 01:46:50;;;;;;;9.98;7.00;;;;;;;;;;5105637;28;20027;-54
2023/12/21 01:49:18;;;;;;;9.90;6.95;;;;;;;;;;5105673;28;20083;-54
2023/12/21 01:51:44;;;;;;;56.75;51.03;;;;;;;;;;5105736;28;20055;-55
2023/12/21 01:54:11;;;;;;;10.20;8.18;;;;;;;;;;5105545;28;20043;-56
2023/12/21 01:56:38;;;;;;;13.68;7.13;;;;;;;;;;5105911;28;20012;-53
2023/12/21 01:59:04;;;;;;;12.18;7.72;;;;;;;;;;5105432;28;20059;-54
2023/12/21 02:01:31;;;;;;;9.35;7.13;;;;;;;;;;5105812;28;20031;-60
2023/12/21 02:03:58;;;;;;;9.43;6.82;;;;;;;;;;5105345;28;20028;-49
2023/12/21 02:06:25;;;;;;;10.02;7.10;;;;;;;;;;5105020;28;20032;-58
2023/12/21 02:08:52;;;;;;;11.68;7.80;;;;;;;;;;5105409;28;20022;-53
2023/12/21 02:11:18;;;;;;;12.23;7.60;;;;;;;;;;5105350;28;20027;-53
2023/12/21 02:13:45;;;;;;;18.63;15.27;;;;;;;;;;5105173;28;20087;-55
2023/12/21 02:16:19;;;;;;;13.80;11.20;;;;;;;;;;5105544;28;20020;-52
2023/12/21 02:18:47;;;;;;;11.40;9.07;;;;;;;;;;5105126;28;20043;-46
2023/12/21 02:21:14;;;;;;;11.07;7.85;;;;;;;;;;5101378;28;20052;-53
2023/12/21 02:23:42;;;;;;;8.80;7.20;;;;;;;;;;5104115;28;20306;-52
2023/12/21 02:26:11;;;;;;;11.05;6.88;;;;;;;;;;5103071;28;20039;-49
2023/12/21 02:28:37;;;;;;;8.00;7.18;;;;;;;;;;5104274;28;20153;-49
2023/12/21 02:31:05;;;;;;;9.20;6.93;;;;;;;;;;5105036;28;20020;-52
2023/12/21 02:33:32;;;;;;;606.88;559.50;;;;;;;;;;5104885;28;20028;-53
2023/12/21 02:35:58;;;;;;;112.15;103.18;;;;;;;;;;5105012;28;20417;-48
2023/12/21 02:38:25;;;;;;;165.90;153.25;;;;;;;;;;5102546;28;20020;-53
2023/12/21 02:40:52;;;;;;;32.85;29.80;;;;;;;;;;5100942;28;20096;-53
2023/12/21 02:43:18;;;;;;;18.10;15.02;;;;;;;;;;5099282;28;20077;-55
2023/12/21 02:45:45;;;;;;;131.90;120.68;;;;;;;;;;5104705;28;20024;-48
2023/12/21 02:48:13;;;;;;;23.48;18.30;;;;;;;;;;5100015;28;20156;-51
2023/12/21 02:50:39;;;;;;;92.32;83.32;;;;;;;;;;5095660;28;20024;-56
2023/12/21 02:53:06;;;;;;;80.93;73.63;;;;;;;;;;5102231;28;20028;-58
2023/12/21 02:55:35;;;;;;;18.77;16.77;;;;;;;;;;5098869;28;20097;-50
2023/12/21 02:58:02;;;;;;;13.25;8.20;;;;;;;;;;5102539;28;20202;-54
2023/12/21 03:00:28;;;;;;;16.05;10.38;;;;;;;;;;5099887;28;20020;-53
2023/12/21 03:02:55;;;;;;;13.55;12.13;;;;;;;;;;5102788;28;20031;-56
2023/12/21 03:05:22;;;;;;;11.80;10.13;;;;;;;;;;5102847;28;20028;-49
2023/12/21 03:07:49;;;;;;;10.43;9.30;;;;;;;;;;5104168;28;20028;-53
2023/12/21 03:10:15;;;;;;;9.45;8.38;;;;;;;;;;5096062;28;20086;-53
2023/12/21 03:12:42;;;;;;;9.15;8.15;;;;;;;;;;5083987;28;20355;-55
2023/12/21 03:15:09;;;;;;;10.10;8.20;;;;;;;;;;5084165;28;20247;-52
2023/12/21 03:17:36;;;;;;;11.75;8.23;;;;;;;;;;5083885;28;20031;-51
2023/12/21 03:20:03;;;;;;;9.30;6.95;;;;;;;;;;5084058;28;20054;-47
2023/12/21 03:22:30;;;;;;;11.13;6.90;;;;;;;;;;5083921;28;20028;-54
2023/12/21 03:24:56;;;;;;;10.18;6.78;;;;;;;;;;5083649;28;20029;-52
2023/12/21 03:27:23;;;;;;;10.10;7.05;;;;;;;;;;5086928;28;20372;-47
2023/12/21 03:29:49;;;;;;;9.20;6.18;;;;;;;;;;5094956;28;20146;-55
2023/12/21 03:32:16;;;;;;;7.38;6.10;;;;;;;;;;5103821;28;20043;-51
2023/12/21 03:34:43;;;;;;;10.10;6.43;;;;;;;;;;5104055;28;20353;-54
2023/12/21 03:37:09;;;;;;;9.48;6.30;;;;;;;;;;5103945;28;20027;-51
2023/12/21 03:39:36;;;;;;;9.68;5.93;;;;;;;;;;5104100;28;20258;-55
2023/12/21 03:42:03;;;;;;;6.97;5.72;;;;;;;;;;5104428;28;20203;-57
2023/12/21 03:44:29;;;;;;;11.07;6.07;;;;;;;;;;5103953;28;20091;-54
2023/12/21 03:47:00;;;;;;;9.27;6.38;;;;;;;;;;5104297;28;20054;-55
2023/12/21 03:49:29;;;;;;;8.20;5.85;;;;;;;;;;5103853;28;20036;-58
2023/12/21 03:51:56;;;;;;;13.52;6.38;;;;;;;;;;5104349;28;20284;-47
2023/12/21 03:54:23;;;;;;;11.18;5.90;;;;;;;;;;5103845;28;20043;-53
2023/12/21 03:56:49;;;;;;;7.70;6.03;;;;;;;;;;5104381;28;20126;-51
2023/12/21 03:59:16;;;;;;;9.13;6.13;;;;;;;;;;5103979;28;20031;-54
2023/12/21 04:01:43;;;;;;;9.57;6.53;;;;;;;;;;5104090;28;20028;-55
2023/12/21 04:04:09;;;;;;;6.63;5.80;;;;;;;;;;5100071;28;20354;-57
2023/12/21 04:06:36;;;;;;;9.63;6.03;;;;;;;;;;5092820;28;20029;-59
2023/12/21 04:09:02;;;;;;;9.70;6.40;;;;;;;;;;5083333;28;20047;-53
2023/12/21 04:11:29;;;;;;;12.35;6.45;;;;;;;;;;5086635;28;20051;-55
2023/12/21 04:13:56;;;;;;;12.13;6.20;;;;;;;;;;5087893;28;20048;-51
2023/12/21 04:16:22;;;;;;;8.80;6.10;;;;;;;;;;5087512;28;20090;-53
2023/12/21 04:18:49;;;;;;;11.10;7.00;;;;;;;;;;5087215;28;20021;-58
2023/12/21 04:21:16;;;;;;;9.77;6.63;;;;;;;;;;5087453;28;20073;-56
2023/12/21 04:23:42;;;;;;;9.00;6.28;;;;;;;;;;5087015;28;20088;-55
2023/12/21 04:26:09;;;;;;;11.52;6.32;;;;;;;;;;5086908;28;20025;-56
2023/12/21 04:28:35;;;;;;;9.32;6.47;;;;;;;;;;5087076;28;20056;-55
2023/12/21 04:31:02;;;;;;;8.90;6.20;;;;;;;;;;5087338;28;20035;-59
2023/12/21 04:33:28;;;;;;;7.82;5.72;;;;;;;;;;5086858;28;20214;-54
2023/12/21 04:35:55;;;;;;;9.10;5.85;;;;;;;;;;5087246;28;20226;-52
2023/12/21 04:38:22;;;;;;;8.18;6.18;;;;;;;;;;5086808;28;20043;-56
2023/12/21 04:40:48;;;;;;;7.50;5.80;;;;;;;;;;5086867;28;20025;-50
2023/12/21 04:43:15;;;;;;;6.88;5.70;;;;;;;;;;5086899;28;20054;-53
2023/12/21 04:45:42;;;;;;;7.65;5.32;;;;;;;;;;5086837;28;20247;-54
2023/12/21 04:48:08;;;;;;;8.70;5.45;;;;;;;;;;5086498;28;20031;-55
2023/12/21 04:50:36;;;;;;;8.65;6.20;;;;;;;;;;5086744;28;20016;-55
2023/12/21 04:53:03;;;;;;;10.23;5.63;;;;;;;;;;5086531;28;20046;-56
2023/12/21 04:55:29;;;;;;;9.15;5.95;;;;;;;;;;5086510;28;20084;-57
2023/12/21 04:57:56;;;;;;;10.55;6.10;;;;;;;;;;5086609;28;20020;-57
2023/12/21 05:00:22;;;;;;;7.65;5.78;;;;;;;;;;5086567;28;20130;-54
2023/12/21 05:02:49;;;;;;;6.38;5.78;;;;;;;;;;5086293;28;20083;-56
2023/12/21 05:05:15;;;;;;;7.85;5.78;;;;;;;;;;5086442;28;20025;-53
2023/12/21 05:07:42;;;;;;;14.88;6.13;;;;;;;;;;5086245;28;20324;-53
2023/12/21 05:10:09;;;;;;;8.63;6.03;;;;;;;;;;5086137;28;20040;-52
2023/12/21 05:12:35;;;;;;;9.55;6.22;;;;;;;;;;5086588;28;20070;-51
2023/12/21 05:15:02;;;;;;;9.85;6.07;;;;;;;;;;5086285;28;20055;-53
2023/12/21 05:17:29;;;;;;;12.60;6.68;;;;;;;;;;5086002;28;20025;-52
2023/12/21 05:19:55;;;;;;;10.57;5.55;;;;;;;;;;5086234;28;20016;-55
2023/12/21 05:22:22;;;;;;;10.02;5.82;;;;;;;;;;5085348;28;20036;-56
2023/12/21 05:24:49;;;;;;;11.23;5.68;;;;;;;;;;5085845;28;20016;-52
2023/12/21 05:27:15;;;;;;;8.85;5.80;;;;;;;;;;5086085;28;20028;-48
2023/12/21 05:29:42;;;;;;;9.70;6.15;;;;;;;;;;5085744;28;20058;-55
2023/12/21 05:32:08;;;;;;;12.95;6.38;;;;;;;;;;5086159;28;20024;-50
2023/12/21 05:34:36;;;;;;;9.38;5.70;;;;;;;;;;5085855;28;20031;-52
2023/12/21 05:37:03;;;;;;;8.35;5.90;;;;;;;;;;5086273;28;20029;-49
2023/12/21 05:39:29;;;;;;;11.18;6.35;;;;;;;;;;5085644;28;20027;-50
2023/12/21 05:41:57;;;;;;;10.43;5.70;;;;;;;;;;5086240;28;20373;-51
2023/12/21 05:44:23;;;;;;;11.48;6.15;;;;;;;;;;5085597;28;20036;-53
2023/12/21 05:46:50;;;;;;;9.63;6.15;;;;;;;;;;5085874;28;20031;-61
2023/12/21 05:49:17;;;;;;;11.32;6.50;;;;;;;;;;5085791;28;20471;-55
2023/12/21 05:51:43;;;;;;;8.93;6.40;;;;;;;;;;5085826;28;20032;-55
2023/12/21 05:54:10;;;;;;;11.25;6.18;;;;;;;;;;5085383;28;20027;-51
2023/12/21 05:56:36;;;;;;;12.50;6.35;;;;;;;;;;5085901;28;20020;-55
2023/12/21 05:59:03;;;;;;;9.93;6.22;;;;;;;;;;5085348;28;20032;-54
2023/12/21 06:01:30;;;;;;;7.20;5.95;;;;;;;;;;5085567;28;20212;-52
2023/12/21 06:03:57;;;;;;;9.63;6.07;;;;;;;;;;5085189;28;20320;-57
2023/12/21 06:06:24;;;;;;;7.32;5.75;;;;;;;;;;5085504;28;20033;-46
2023/12/21 06:08:50;;;;;;;9.43;6.40;;;;;;;;;;5085058;28;20025;-48
2023/12/21 06:11:17;;;;;;;7.10;6.40;;;;;;;;;;5085261;28;20035;-50
2023/12/21 06:13:44;;;;;;;11.13;6.95;;;;;;;;;;5085004;28;20032;-50
2023/12/21 06:16:11;;;;;;;10.45;6.45;;;;;;;;;;5085440;28;20059;-50
2023/12/21 06:18:38;;;;;;;10.07;5.95;;;;;;;;;;5084859;28;20016;-49
2023/12/21 06:21:05;;;;;;;10.82;6.30;;;;;;;;;;5085224;28;20096;-59
2023/12/21 06:23:32;;;;;;;9.38;6.05;;;;;;;;;;5084834;28;20024;-53
2023/12/21 06:25:58;;;;;;;9.32;5.78;;;;;;;;;;5084642;28;20032;-52
2023/12/21 06:28:25;;;;;;;10.48;6.20;;;;;;;;;;5084643;28;20036;-57
2023/12/21 06:30:51;;;;;;;8.63;6.28;;;;;;;;;;5084973;28;20032;-52
2023/12/21 06:33:18;;;;;;;10.07;6.35;;;;;;;;;;5084072;28;20020;-51
2023/12/21 06:35:44;;;;;;;9.32;6.30;;;;;;;;;;5084271;28;20251;-56
2023/12/21 06:38:11;;;;;;;8.88;6.90;;;;;;;;;;5084611;28;20016;-57
2023/12/21 06:40:37;;;;;;;10.80;7.03;;;;;;;;;;5084613;28;20016;-50
2023/12/21 06:43:04;;;;;;;10.93;6.28;;;;;;;;;;5084540;28;20036;-54
2023/12/21 06:45:31;;;;;;;10.18;6.25;;;;;;;;;;5084586;28;20024;-52
2023/12/21 06:48:01;;;;;;;10.10;5.72;;;;;;;;;;5084355;28;20044;-54
2023/12/21 06:50:27;;;;;;;9.80;6.53;;;;;;;;;;5084382;28;20032;-50
2023/12/21 06:52:54;;;;;;;12.07;6.45;;;;;;;;;;5084284;28;20092;-52
2023/12/21 06:55:21;;;;;;;10.70;6.60;;;;;;;;;;5084238;28;20012;-55
2023/12/21 06:57:47;;;;;;;7.05;5.63;;;;;;;;;;5084203;28;20029;-54
2023/12/21 07:00:14;;;;;;;8.35;6.35;;;;;;;;;;5084314;28;20031;-55
2023/12/21 07:02:41;;;;;;;8.57;5.90;;;;;;;;;;5084047;28;20220;-51
2023/12/21 07:05:08;;;;;;;7.53;5.82;;;;;;;;;;5084259;28;20078;-53
2023/12/21 07:07:34;;;;;;;7.40;5.57;;;;;;;;;;5084081;28;20320;-51
2023/12/21 07:10:01;;;;;;;8.55;5.80;;;;;;;;;;5094394;28;20086;-51
2023/12/21 07:12:27;;;;;;;10.30;5.60;;;;;;;;;;5092331;28;20035;-52
2023/12/21 07:14:54;;;;;;;8.52;5.25;;;;;;;;;;5104234;28;20012;-49
2023/12/21 07:17:21;;;;;;;8.07;5.32;;;;;;;;;;5104361;28;20027;-56
2023/12/21 07:19:47;;;;;;;12.57;5.75;;;;;;;;;;5104203;28;20087;-48
2023/12/21 07:22:14;;;;;;;6.95;5.10;;;;;;;;;;5104334;28;20028;-52
2023/12/21 07:24:41;;;;;;;9.07;5.00;;;;;;;;;;5104279;28;20027;-52
2023/12/21 07:27:07;;;;;;;8.43;4.93;;;;;;;;;;5104486;28;20110;-56
2023/12/21 07:29:35;;;;;;;7.30;5.40;;;;;;;;;;5103973;28;20052;-48
2023/12/21 07:32:01;;;;;;;7.40;4.95;;;;;;;;;;5104480;28;20316;-47
2023/12/21 07:34:28;;;;;;;9.15;5.15;;;;;;;;;;5103932;28;20104;-48
2023/12/21 07:36:55;;;;;;;8.80;5.43;;;;;;;;;;5104498;28;20192;-49
2023/12/21 07:39:22;;;;;;;6.55;4.88;;;;;;;;;;5104153;28;20028;-49
2023/12/21 07:41:48;;;;;;;6.55;5.07;;;;;;;;;;5104304;28;20039;-51
2023/12/21 07:44:15;;;;;;;6.93;5.43;;;;;;;;;;5104113;28;20023;-57
2023/12/21 07:46:41;;;;;;;7.25;5.03;;;;;;;;;;5107814;28;20079;-49
2023/12/21 07:49:08;;;;;;;8.68;5.38;;;;;;;;;;5107970;28;20036;-62
2023/12/21 07:51:34;;;;;;;7.97;5.47;;;;;;;;;;5108456;28;20020;-51
2023/12/21 07:54:01;;;;;;;6.30;4.93;;;;;;;;;;5108206;28;20377;-51
2023/12/21 07:56:28;;;;;;;6.65;5.50;;;;;;;;;;5108179;28;20048;-48
2023/12/21 07:58:54;;;;;;;8.55;4.90;;;;;;;;;;5108074;28;20019;-54
2023/12/21 08:01:21;;;;;;;7.38;5.20;;;;;;;;;;5108504;28;20012;-55
2023/12/21 08:03:47;;;;;;;8.52;5.20;;;;;;;;;;5108049;28;20216;-51
2023/12/21 08:06:21;;;;;;;8.98;5.70;;;;;;;;;;5108215;28;20100;-51
2023/12/21 08:08:47;;;;;;;7.55;5.60;;;;;;;;;;5107736;28;20024;-55
2023/12/21 08:11:15;;;;;;;7.60;5.20;;;;;;;;;;5107738;28;20031;-52
2023/12/21 08:13:41;;;;;;;7.38;5.25;;;;;;;;;;5107667;28;20020;-53
2023/12/21 08:16:08;;;;;;;7.40;5.22;;;;;;;;;;5108041;28;20016;-55
2023/12/21 08:18:34;;;;;;;11.30;5.07;;;;;;;;;;5107489;28;20090;-59
2023/12/21 08:21:01;;;;;;;7.93;5.35;;;;;;;;;;5107815;28;20020;-59
2023/12/21 08:23:27;;;;;;;8.43;5.15;;;;;;;;;;5107491;28;20028;-55
2023/12/21 08:25:54;;;;;;;9.55;5.80;;;;;;;;;;5107541;28;20215;-54
2023/12/21 08:28:21;;;;;;;12.05;5.38;;;;;;;;;;5107164;28;20024;-53
2023/12/21 08:30:48;;;;;;;8.82;5.10;;;;;;;;;;5107610;28;20091;-55
2023/12/21 08:33:14;;;;;;;12.15;5.57;;;;;;;;;;5107166;28;20089;-60
2023/12/21 08:35:41;;;;;;;7.85;5.82;;;;;;;;;;5107448;28;20016;-51
2023/12/21 08:38:08;;;;;;;9.00;5.43;;;;;;;;;;5107406;28;20028;-55
2023/12/21 08:40:35;;;;;;;7.88;5.53;;;;;;;;;;5107123;28;20360;-52
2023/12/21 08:43:02;;;;;;;7.20;4.88;;;;;;;;;;5107066;28;20193;-55
2023/12/21 08:45:29;;;;;;;9.52;5.22;;;;;;;;;;5107200;28;20024;-53
2023/12/21 08:47:56;;;;;;;10.30;5.40;;;;;;;;;;5106886;28;20032;-54
2023/12/21 08:50:22;;;;;;;9.13;5.68;;;;;;;;;;5107072;28;20098;-53
2023/12/21 08:52:49;;;;;;;8.38;5.55;;;;;;;;;;5106912;28;20034;-53
2023/12/21 08:55:16;;;;;;;7.80;5.43;;;;;;;;;;5106878;28;20087;-55
2023/12/21 08:57:42;;;;;;;8.63;5.40;;;;;;;;;;5105789;28;20336;-52
2023/12/21 09:00:13;;;;;;;9.55;5.93;;;;;;;;;;5106985;28;20048;-52
2023/12/21 09:02:40;;;;;;;9.15;5.18;;;;;;;;;;5106540;28;20081;-55
2023/12/21 09:05:07;;;;;;;7.90;5.30;;;;;;;;;;5106886;28;20242;-51
2023/12/21 09:07:34;;;;;;;7.80;5.25;;;;;;;;;;5106966;28;20211;-51
2023/12/21 09:10:03;;;;;;;7.38;5.60;;;;;;;;;;5106522;28;20087;-53
2023/12/21 09:12:29;;;;;;;6.85;5.07;;;;;;;;;;5106646;28;20027;-51
2023/12/21 09:14:56;;;;;;;6.40;5.50;;;;;;;;;;5106583;28;20020;-51
2023/12/21 09:17:22;;;;;;;7.95;5.35;;;;;;;;;;5106310;28;20032;-52
2023/12/21 09:19:49;;;;;;;8.57;5.50;;;;;;;;;;5106646;28;20057;-52
2023/12/21 09:22:15;;;;;;;9.70;5.20;;;;;;;;;;5106424;28;20236;-53
2023/12/21 09:24:42;;;;;;;8.90;5.47;;;;;;;;;;5106242;28;20077;-57
2023/12/21 09:27:09;;;;;;;8.57;5.32;;;;;;;;;;5106718;28;20031;-57
2023/12/21 09:29:35;;;;;;;7.85;4.95;;;;;;;;;;5106254;28;20367;-52
2023/12/21 09:32:02;;;;;;;11.73;5.43;;;;;;;;;;5106646;28;20073;-53
2023/12/21 09:34:28;;;;;;;8.35;5.18;;;;;;;;;;5106040;28;20050;-54
2023/12/21 09:36:56;;;;;;;9.35;5.40;;;;;;;;;;5106583;28;20016;-52
2023/12/21 09:39:23;;;;;;;7.32;5.38;;;;;;;;;;5106144;28;20031;-51
2023/12/21 09:41:50;;;;;;;9.95;5.47;;;;;;;;;;5106340;28;20061;-51
2023/12/21 09:44:17;;;;;;;7.35;5.35;;;;;;;;;;5106010;28;20028;-51
2023/12/21 09:46:48;;;;;;;9.13;5.30;;;;;;;;;;5106260;28;20032;-56
2023/12/21 09:49:14;;;;;;;7.82;5.30;;;;;;;;;;5106019;28;20108;-54
2023/12/21 09:51:44;;;;;;;7.88;5.05;;;;;;;;;;5106224;28;20019;-47
2023/12/21 09:54:11;;;;;;;9.38;5.53;;;;;;;;;;5105556;28;20028;-55
2023/12/21 09:56:37;;;;;;;7.75;5.70;;;;;;;;;;5106055;28;20036;-50
2023/12/21 09:59:05;;;;;;;9.23;5.28;;;;;;;;;;5105811;28;20016;-48
2023/12/21 10:01:33;;;;;;;7.68;5.55;;;;;;;;;;5105872;28;20039;-51
2023/12/21 10:03:59;;;;;;;5.20;4.25;;;;;;;;;;5105583;28;20016;-51
2023/12/21 10:06:26;;;;;;;8.13;5.85;;;;;;;;;;5105952;28;20019;-50
2023/12/21 10:08:53;;;;;;;9.02;5.70;;;;;;;;;;5105298;28;20377;-58
2023/12/21 10:11:20;;;;;;;8.85;5.55;;;;;;;;;;5105618;28;20305;-56
2023/12/21 10:13:53;;;;;;;7.82;5.93;;;;;;;;;;5105516;28;20203;-56
2023/12/21 10:16:21;;;;;;;10.95;5.35;;;;;;;;;;5105583;28;20043;-54
2023/12/21 10:18:50;;;;;;;6.70;5.38;;;;;;;;;;5105247;28;20279;-48
2023/12/21 10:21:17;;;;;;;7.70;5.65;;;;;;;;;;5105605;28;20100;-47
2023/12/21 10:23:43;;;;;;;8.07;5.65;;;;;;;;;;5105004;28;20091;-56
2023/12/21 10:26:10;;;;;;;7.93;5.70;;;;;;;;;;5105552;28;20027;-55
2023/12/21 10:28:37;;;;;;;6.72;5.20;;;;;;;;;;5104995;28;20044;-51
2023/12/21 10:31:05;;;;;;;9.50;5.50;;;;;;;;;;5105340;28;20016;-57
2023/12/21 10:33:31;;;;;;;9.27;5.85;;;;;;;;;;5104948;28;20216;-51
2023/12/21 10:35:58;;;;;;;9.82;5.70;;;;;;;;;;5105111;28;20095;-48
2023/12/21 10:38:25;;;;;;;9.40;5.53;;;;;;;;;;5104692;28;20023;-50
2023/12/21 10:40:52;;;;;;;16.80;6.40;;;;;;;;;;5105071;28;20023;-59
2023/12/21 10:43:19;;;;;;;11.07;6.32;;;;;;;;;;5104915;28;20062;-57
2023/12/21 10:45:46;;;;;;;11.60;5.78;;;;;;;;;;5104739;28;20024;-52
2023/12/21 10:48:15;;;;;;;10.50;6.20;;;;;;;;;;5104484;28;20024;-50
2023/12/21 10:50:46;;;;;;;8.20;6.03;;;;;;;;;;5104762;28;20028;-51
2023/12/21 10:53:13;;;;;;;12.80;6.32;;;;;;;;;;5104389;28;20023;-51
2023/12/21 10:55:41;;;;;;;9.48;6.18;;;;;;;;;;5104792;28;20198;-52
2023/12/21 10:58:08;;;;;;;9.43;6.35;;;;;;;;;;5104708;28;20062;-52
2023/12/21 11:00:35;;;;;;;10.40;5.88;;;;;;;;;;5103676;28;20014;-56
2023/12/21 11:03:02;;;;;;;8.40;5.72;;;;;;;;;;5103317;28;20212;-48
2023/12/21 11:05:31;;;;;;;12.50;6.10;;;;;;;;;;5104641;28;20036;-61
2023/12/21 11:08:00;;;;;;;11.93;6.18;;;;;;;;;;5104424;28;20028;-53
2023/12/21 11:10:27;;;;;;;9.27;6.57;;;;;;;;;;5102862;28;20304;-46
2023/12/21 11:12:54;;;;;;;12.55;6.40;;;;;;;;;;5088886;28;20043;-47
2023/12/21 11:15:21;;;;;;;12.82;6.47;;;;;;;;;;5093481;28;20087;-46
2023/12/21 11:17:51;;;;;;;11.43;6.82;;;;;;;;;;5093542;28;20028;-49
2023/12/21 11:20:19;;;;;;;13.05;6.35;;;;;;;;;;5096435;28;20518;-49
2023/12/21 11:22:47;;;;;;;15.57;6.68;;;;;;;;;;5095640;28;20046;-46
2023/12/21 11:25:13;;;;;;;11.77;6.15;;;;;;;;;;5094743;28;20095;-52
2023/12/21 11:27:43;;;;;;;9.18;6.38;;;;;;;;;;5094244;28;20040;-47
2023/12/21 11:30:10;;;;;;;9.35;6.75;;;;;;;;;;5092526;28;20067;-51
2023/12/21 11:32:41;;;;;;;13.23;7.00;;;;;;;;;;5094871;28;20091;-50
2023/12/21 11:35:25;;;;;;;18.88;9.77;;;;;;;;;;5097075;28;20032;-49
2023/12/21 11:37:55;;;;;;;17.25;9.90;;;;;;;;;;5092775;28;20293;-53
2023/12/21 11:40:22;;;;;;;15.70;9.60;;;;;;;;;;5091719;28;20035;-59
2023/12/21 11:42:50;;;;;;;15.68;9.73;;;;;;;;;;5090500;28;20059;-61
2023/12/21 11:45:28;;;;;;;15.88;8.95;;;;;;;;;;5083698;28;20301;-46
2023/12/21 11:47:56;;;;;;;15.23;8.27;;;;;;;;;;5083444;28;20029;-50
2023/12/21 11:50:30;;;;;;;13.50;8.25;;;;;;;;;;5083560;28;20297;-51
2023/12/21 11:53:06;;;;;;;12.70;8.40;;;;;;;;;;5083233;28;20041;-51
2023/12/21 11:55:42;;;;;;;11.27;7.80;;;;;;;;;;5082737;28;20040;-49
2023/12/21 11:58:23;;;;;;;12.50;7.90;;;;;;;;;;5082879;28;20033;-50
2023/12/21 12:00:50;;;;;;;10.73;8.15;;;;;;;;;;5083771;28;20038;-48
2023/12/21 12:03:17;;;;;;;9.98;7.53;;;;;;;;;;5083577;28;20201;-50
2023/12/21 12:05:44;;;;;;;11.20;8.13;;;;;;;;;;5083595;28;20029;-54
2023/12/21 12:08:11;;;;;;;12.32;8.32;;;;;;;;;;5083520;28;20485;-53
2023/12/21 12:10:38;;;;;;;13.07;7.90;;;;;;;;;;5083614;28;20055;-52
2023/12/21 12:13:05;;;;;;;10.13;7.28;;;;;;;;;;5083372;28;20052;-53
2023/12/21 12:15:32;;;;;;;10.05;7.93;;;;;;;;;;5083556;28;20032;-48
2023/12/21 12:18:00;;;;;;;10.32;7.90;;;;;;;;;;5083419;28;20028;-48
2023/12/21 12:20:28;;;;;;;9.63;8.32;;;;;;;;;;5083518;28;20051;-51
2023/12/21 12:22:55;;;;;;;8.82;7.93;;;;;;;;;;5083403;28;20052;-48
2023/12/21 12:25:22;;;;;;;10.52;8.40;;;;;;;;;;5083393;28;20036;-59
2023/12/21 12:27:48;;;;;;;10.45;8.20;;;;;;;;;;5083244;28;20028;-48
2023/12/21 12:30:15;;;;;;;12.55;9.65;;;;;;;;;;5083150;28;20044;-60
2023/12/21 12:32:43;;;;;;;13.63;12.32;;;;;;;;;;5086228;28;20041;-46
2023/12/21 12:35:12;;;;;;;11.05;9.95;;;;;;;;;;5087042;28;20083;-49
2023/12/21 12:37:40;;;;;;;10.88;9.30;;;;;;;;;;5086878;28;20040;-49
2023/12/21 12:40:07;;;;;;;9.65;8.60;;;;;;;;;;5087006;28;20271;-49
2023/12/21 12:42:35;;;;;;;10.43;8.57;;;;;;;;;;5086858;28;20338;-56
2023/12/21 12:45:03;;;;;;;10.95;8.52;;;;;;;;;;5086784;28;20316;-49
2023/12/21 12:47:30;;;;;;;9.27;8.13;;;;;;;;;;5086834;28;20374;-46
2023/12/21 12:49:58;;;;;;;11.88;9.43;;;;;;;;;;5086642;28;20331;-56
2023/12/21 12:52:25;;;;;;;14.70;9.27;;;;;;;;;;5086528;28;20032;-58
2023/12/21 12:54:52;;;;;;;11.77;10.20;;;;;;;;;;5086479;28;20052;-47
2023/12/21 12:57:20;;;;;;;15.07;13.57;;;;;;;;;;5086535;28;20288;-56
2023/12/21 12:59:46;;;;;;;14.98;11.45;;;;;;;;;;5086515;28;20020;-53
2023/12/21 13:02:13;;;;;;;12.75;11.48;;;;;;;;;;5086545;28;20040;-50
2023/12/21 13:04:40;;;;;;;16.10;10.40;;;;;;;;;;5086434;28;20332;-51
2023/12/21 13:07:07;;;;;;;12.98;9.27;;;;;;;;;;5086843;28;20124;-56
2023/12/21 13:09:35;;;;;;;11.95;10.02;;;;;;;;;;5086304;28;20131;-47
2023/12/21 13:12:02;;;;;;;13.68;9.77;;;;;;;;;;5086677;28;20066;-53
2023/12/21 13:14:29;;;;;;;11.00;9.70;;;;;;;;;;5086209;28;20032;-55
2023/12/21 13:16:55;;;;;;;14.77;10.38;;;;;;;;;;5086608;28;20031;-51
2023/12/21 13:19:23;;;;;;;14.18;10.00;;;;;;;;;;5086190;28;20061;-53
2023/12/21 13:21:50;;;;;;;12.57;9.55;;;;;;;;;;5086539;28;20028;-46
2023/12/21 13:24:17;;;;;;;14.40;10.05;;;;;;;;;;5086041;28;20050;-51
2023/12/21 13:26:44;;;;;;;13.05;9.38;;;;;;;;;;5086622;28;20306;-49
2023/12/21 13:29:11;;;;;;;28.15;10.85;;;;;;;;;;5085904;28;20070;-48
2023/12/21 13:31:38;;;;;;;75.43;41.53;;;;;;;;;;5086163;28;20032;-52
2023/12/21 13:34:05;;;;;;;36.33;21.08;;;;;;;;;;5085886;28;20057;-54
2023/12/21 13:36:32;;;;;;;32.58;17.70;;;;;;;;;;5086032;28;20039;-51
2023/12/21 13:38:59;;;;;;;47.35;39.45;;;;;;;;;;5085823;28;20037;-53
2023/12/21 13:41:26;;;;;;;32.15;27.65;;;;;;;;;;5086068;28;20075;-57
2023/12/21 13:43:54;;;;;;;30.45;21.23;;;;;;;;;;5084918;28;20025;-50
2023/12/21 13:46:21;;;;;;;23.95;18.33;;;;;;;;;;5085915;28;20025;-48
2023/12/21 13:48:48;;;;;;;18.73;16.65;;;;;;;;;;5085532;28;20020;-51
2023/12/21 13:51:15;;;;;;;20.88;15.35;;;;;;;;;;5085704;28;20028;-47
2023/12/21 13:53:42;;;;;;;16.17;13.70;;;;;;;;;;5085585;28;20082;-52
2023/12/21 13:56:09;;;;;;;14.90;13.27;;;;;;;;;;5085612;28;20062;-46
2023/12/21 13:58:36;;;;;;;14.40;12.10;;;;;;;;;;5085225;28;20024;-52
2023/12/21 14:01:03;;;;;;;13.05;11.73;;;;;;;;;;5085651;28;20119;-55
2023/12/21 14:03:30;;;;;;;12.93;11.73;;;;;;;;;;5085096;28;20043;-52
2023/12/21 14:05:57;;;;;;;14.15;10.88;;;;;;;;;;5085396;28;20094;-50
2023/12/21 14:08:24;;;;;;;12.10;10.05;;;;;;;;;;5085181;28;20095;-50
2023/12/21 14:10:51;;;;;;;11.55;10.38;;;;;;;;;;5085297;28;20196;-46
2023/12/21 14:13:19;;;;;;;12.23;10.20;;;;;;;;;;5084875;28;20024;-51
2023/12/21 14:15:45;;;;;;;14.38;10.10;;;;;;;;;;5085182;28;20031;-57
2023/12/21 14:18:13;;;;;;;11.35;9.95;;;;;;;;;;5085004;28;20020;-47
2023/12/21 14:20:41;;;;;;;11.27;10.13;;;;;;;;;;5084935;28;20107;-53
2023/12/21 14:23:08;;;;;;;11.23;9.32;;;;;;;;;;5084874;28;20239;-51
2023/12/21 14:25:35;;;;;;;11.60;9.10;;;;;;;;;;5084852;28;20028;-51
2023/12/21 14:28:02;;;;;;;10.35;9.05;;;;;;;;;;5084707;28;20036;-53
2023/12/21 14:30:28;;;;;;;10.55;9.23;;;;;;;;;;5084675;28;20052;-55
2023/12/21 14:32:55;;;;;;;77.40;69.10;;;;;;;;;;5084674;28;20044;-58